Time;durP1;ratioP1;P1;durP2;ratioP2;P2;SDS_P1;SDS_P2;PMS_P1;PMS_P2;Temp;Humidity;BMP_temperature;BMP_pressure;BME280_temperature;BME280_humidity;BME280_pressure;Samples;Min_cycle;Max_cycle;Signal;HPM_P1;HPM_P2
2022/04/06 00:00:43;;;;;;;7.18;4.85;;;;;;;11.82;89.50;99494.88;5091897;28;20654;-66
2022/04/06 00:03:09;;;;;;;7.55;5.20;;;;;;;11.82;89.10;99501.06;5092449;28;20024;-66
2022/04/06 00:05:34;;;;;;;9.10;4.97;;;;;;;11.81;89.48;99498.47;5092908;28;20039;-66
2022/04/06 00:08:01;;;;;;;10.05;4.43;;;;;;;11.76;90.21;99490.66;5093422;28;20093;-66
2022/04/06 00:10:28;;;;;;;8.73;5.13;;;;;;;11.83;89.92;99494.78;5093050;28;20020;-66
2022/04/06 00:12:54;;;;;;;7.53;4.68;;;;;;;11.84;89.78;99487.66;5092823;28;20024;-66
2022/04/06 00:15:19;;;;;;;7.05;5.10;;;;;;;11.85;90.31;99500.03;5092620;28;20440;-66
2022/04/06 00:17:45;;;;;;;11.05;6.32;;;;;;;11.86;89.73;99488.47;5092347;28;20024;-66
2022/04/06 00:20:11;;;;;;;8.60;5.40;;;;;;;11.88;90.36;99491.91;5092207;28;20047;-66
2022/04/06 00:22:37;;;;;;;10.23;5.30;;;;;;;11.86;90.49;99485.81;5092597;28;20036;-66
2022/04/06 00:25:03;;;;;;;7.65;4.50;;;;;;;11.88;90.46;99482.13;5092289;28;20016;-66
2022/04/06 00:27:28;;;;;;;7.95;4.80;;;;;;;11.88;90.20;99482.13;5092675;28;20027;-66
2022/04/06 00:29:54;;;;;;;6.85;4.72;;;;;;;11.87;90.87;99482.19;5072482;28;20028;-66
2022/04/06 00:32:20;;;;;;;8.10;4.30;;;;;;;11.84;90.40;99482.34;5072485;28;20024;-66
2022/04/06 00:37:29;;;;;;;;;;;;;;;11.77;91.71;99465.78;5072450;28;20054;-66
2022/04/06 00:39:54;;;;;;;9.35;4.78;;;;;;;11.79;91.64;99473.69;5069290;28;19921;-66
2022/04/06 00:42:20;;;;;;;7.35;4.53;;;;;;;11.81;91.29;99472.66;5052635;28;20480;-65
2022/04/06 00:44:45;;;;;;;7.00;4.35;;;;;;;11.83;91.10;99469.94;5067714;28;20024;-66
2022/04/06 00:47:11;;;;;;;8.18;5.05;;;;;;;11.81;91.56;99461.16;5071680;28;20028;-66
2022/04/06 00:49:36;;;;;;;7.43;5.07;;;;;;;11.84;91.36;99456.53;5062150;28;20021;-65
2022/04/06 00:52:05;;;;;;;8.20;4.50;;;;;;;11.84;91.32;99463.69;5071902;28;20025;-65
2022/04/06 00:54:31;;;;;;;8.65;5.05;;;;;;;11.83;91.74;99453.94;5071301;28;20232;-65
2022/04/06 00:56:57;;;;;;;8.48;4.57;;;;;;;11.82;92.38;99457.56;5071437;28;20116;-65
2022/04/06 00:59:26;;;;;;;7.28;4.50;;;;;;;11.82;91.59;99463.75;5071282;28;20023;-65
2022/04/06 01:01:52;;;;;;;8.63;4.88;;;;;;;11.84;92.31;99455.69;5071588;28;20054;-65
2022/04/06 01:04:18;;;;;;;7.55;4.68;;;;;;;11.83;91.88;99448.63;5071578;28;20161;-65
2022/04/06 01:06:44;;;;;;;9.50;4.90;;;;;;;11.86;92.13;99460.00;5071536;28;20028;-66
2022/04/06 01:09:10;;;;;;;8.30;4.90;;;;;;;11.87;92.22;99451.09;5067275;28;20020;-66
2022/04/06 01:11:36;;;;;;;10.43;4.82;;;;;;;11.89;91.81;99453.69;5051547;28;20191;-66
2022/04/06 01:14:02;;;;;;;7.95;5.10;;;;;;;11.87;91.58;99450.22;5050603;28;20033;-66
2022/04/06 01:16:29;;;;;;;8.57;4.90;;;;;;;11.87;91.82;99451.09;5057942;28;20020;-66
2022/04/06 01:18:54;;;;;;;6.63;4.72;;;;;;;11.88;91.71;99443.94;5077573;28;20060;-66
2022/04/06 01:21:21;;;;;;;6.90;4.65;;;;;;;11.84;92.59;99445.88;5073809;28;20045;-65
2022/04/06 01:23:47;;;;;;;7.28;4.53;;;;;;;11.86;91.62;99449.34;5071711;28;20051;-65
2022/04/06 01:26:14;;;;;;;7.18;4.22;;;;;;;11.87;91.69;99435.09;5071266;28;20121;-65
2022/04/06 01:28:40;;;;;;;6.82;4.22;;;;;;;11.88;91.54;99446.59;5080924;28;20028;-65
2022/04/06 01:31:06;;;;;;;8.43;5.07;;;;;;;11.86;91.49;99438.69;5090794;28;20028;-65
2022/04/06 01:33:32;;;;;;;8.02;4.78;;;;;;;11.87;91.07;99444.88;5091322;28;20028;-65
2022/04/06 01:35:59;;;;;;;7.85;4.60;;;;;;;11.85;92.12;99436.09;5091526;28;20020;-65
2022/04/06 01:38:26;;;;;;;7.28;4.05;;;;;;;11.85;91.70;99436.97;5091316;28;20032;-65
2022/04/06 01:40:52;;;;;;;9.48;5.25;;;;;;;11.83;91.47;99433.50;5091269;28;20131;-66
2022/04/06 01:43:17;;;;;;;6.82;4.40;;;;;;;11.80;91.78;99433.66;5091379;28;20020;-66
2022/04/06 01:45:43;;;;;;;7.50;4.55;;;;;;;11.80;91.61;99430.97;5091286;28;20024;-66
2022/04/06 01:48:09;;;;;;;7.75;4.95;;;;;;;11.77;92.06;99425.81;5091565;28;20032;-66
2022/04/06 01:53:18;;;;;;;7.57;4.78;;;;;;;11.76;92.92;99431.22;5091697;28;20035;-66
2022/04/06 01:55:43;;;;;;;7.63;4.53;;;;;;;11.76;92.43;99428.53;5091120;28;20107;-65
2022/04/06 01:58:09;;;;;;;12.32;6.00;;;;;;;11.74;92.60;99427.75;5091110;28;20496;-65
2022/04/06 02:00:34;;;;;;;7.35;5.00;;;;;;;11.73;93.24;99416.22;5090749;28;20105;-65
2022/04/06 02:03:00;;;;;;;7.43;4.20;;;;;;;11.73;92.69;99421.53;5091513;28;20179;-65
2022/04/06 02:05:31;;;;;;;9.43;4.63;;;;;;;11.70;92.59;99423.47;5091002;28;20055;-65
2022/04/06 02:07:56;;;;;;;8.00;4.35;;;;;;;11.72;92.70;99418.94;5090430;28;20088;-66
2022/04/06 02:10:22;;;;;;;7.93;5.32;;;;;;;11.72;93.01;99418.94;5091032;28;20024;-66
2022/04/06 02:12:48;;;;;;;7.97;5.63;;;;;;;11.72;92.92;99413.63;5091724;28;20115;-66
2022/04/06 02:15:14;;;;;;;7.93;4.35;;;;;;;11.71;92.82;99409.25;5090769;28;20031;-66
2022/04/06 02:17:42;;;;;;;7.68;5.10;;;;;;;11.70;93.62;99404.84;5091009;28;20390;-66
2022/04/06 02:20:07;;;;;;;7.65;4.93;;;;;;;11.73;92.69;99399.34;5090805;28;20072;-66
2022/04/06 02:22:33;;;;;;;7.45;4.78;;;;;;;11.72;93.28;99408.28;5091568;28;20063;-66
2022/04/06 02:24:58;;;;;;;10.63;4.97;;;;;;;11.68;93.34;99401.38;5094938;28;20043;-66
2022/04/06 02:27:24;;;;;;;9.13;4.55;;;;;;;11.66;93.85;99395.28;5094798;28;20035;-66
2022/04/06 02:29:49;;;;;;;7.55;4.75;;;;;;;11.65;94.23;99397.06;5074918;28;20024;-66
2022/04/06 02:32:14;;;;;;;8.57;5.03;;;;;;;11.65;93.97;99390.88;5074476;28;20101;-66
2022/04/06 02:34:40;;;;;;;6.45;4.35;;;;;;;11.67;92.87;99397.00;5074030;28;20029;-66
2022/04/06 02:37:07;;;;;;;6.82;4.53;;;;;;;11.69;93.72;99403.13;5066568;28;20024;-66
2022/04/06 02:39:33;;;;;;;9.95;4.93;;;;;;;11.67;93.34;99397.00;5072801;28;20351;-66
2022/04/06 02:41:59;;;;;;;5.70;3.95;;;;;;;11.59;93.92;99386.66;5069603;28;20025;-66
2022/04/06 02:44:24;;;;;;;7.38;4.53;;;;;;;11.62;93.81;99397.19;5054348;28;20024;-66
2022/04/06 02:46:49;;;;;;;8.20;4.75;;;;;;;11.63;93.89;99403.38;5053876;28;20124;-66
2022/04/06 02:49:16;;;;;;;8.38;4.40;;;;;;;11.55;93.59;99373.53;5053916;28;20056;-66
2022/04/06 02:51:42;;;;;;;8.65;5.47;;;;;;;11.59;93.74;99377.81;5053953;28;20029;-66
2022/04/06 02:54:08;;;;;;;6.97;4.78;;;;;;;11.64;93.85;99386.47;5053476;28;20029;-66
2022/04/06 02:56:34;;;;;;;7.78;4.50;;;;;;;11.64;93.77;99384.69;5054202;28;20100;-66
2022/04/06 02:59:01;;;;;;;7.07;4.22;;;;;;;11.63;93.81;99382.94;5065826;28;20051;-66
2022/04/06 03:01:27;;;;;;;8.68;4.32;;;;;;;11.59;94.38;99380.47;5073796;28;20024;-66
2022/04/06 03:03:52;;;;;;;7.35;4.40;;;;;;;11.65;93.50;99380.22;5074339;28;20032;-66
2022/04/06 03:06:18;;;;;;;7.15;4.30;;;;;;;11.62;94.17;99375.00;5073241;28;20027;-66
2022/04/06 03:08:44;;;;;;;6.68;3.90;;;;;;;11.64;94.26;99374.03;5073678;28;20020;-65
2022/04/06 03:11:10;;;;;;;8.13;4.28;;;;;;;11.69;94.05;99364.03;5073490;28;20029;-65
2022/04/06 03:13:35;;;;;;;8.82;4.13;;;;;;;11.70;92.77;99372.88;5073274;28;20043;-65
2022/04/06 03:16:01;;;;;;;6.97;4.47;;;;;;;11.68;93.61;99356.09;5065368;28;20450;-66
2022/04/06 03:18:26;;;;;;;8.27;4.65;;;;;;;11.71;92.61;99358.63;5085325;28;20024;-65
2022/04/06 03:20:52;;;;;;;8.88;4.18;;;;;;;11.64;93.29;99354.53;5073527;28;20032;-66
2022/04/06 03:23:18;;;;;;;6.95;4.80;;;;;;;11.65;93.83;99354.44;5073214;28;20085;-66
2022/04/06 03:25:44;;;;;;;10.05;4.65;;;;;;;11.65;94.56;99354.44;5073503;28;20107;-65
2022/04/06 03:28:10;;;;;;;9.00;4.95;;;;;;;11.64;94.91;99359.84;5078343;28;20028;-65
2022/04/06 03:30:36;;;;;;;8.07;4.75;;;;;;;11.61;94.56;99358.13;5093187;28;20073;-65
2022/04/06 03:33:02;;;;;;;7.72;4.82;;;;;;;11.57;95.44;99355.69;5093395;28;20035;-66
2022/04/06 03:35:28;;;;;;;11.40;5.03;;;;;;;11.57;95.65;99356.56;5093209;28;20028;-66
2022/04/06 03:37:53;;;;;;;9.98;4.93;;;;;;;11.54;95.16;99347.88;5093646;28;20502;-66
2022/04/06 03:40:19;;;;;;;7.90;5.13;;;;;;;11.52;96.12;99355.06;5093066;28;20021;-65
2022/04/06 03:42:45;;;;;;;7.47;4.82;;;;;;;11.52;95.67;99347.06;5093253;28;20020;-65
2022/04/06 03:45:11;;;;;;;9.20;5.20;;;;;;;11.51;96.19;99345.34;5092885;28;20027;-65
2022/04/06 03:47:40;;;;;;;7.20;4.70;;;;;;;11.47;95.77;99339.28;5092573;28;20032;-65
2022/04/06 03:50:06;;;;;;;11.40;5.15;;;;;;;11.45;95.25;99338.50;5093286;28;20016;-65
2022/04/06 03:52:31;;;;;;;9.90;4.05;;;;;;;11.47;95.41;99343.75;5093263;28;20478;-66
2022/04/06 03:54:57;;;;;;;7.45;4.60;;;;;;;11.50;95.39;99340.94;5093316;28;20035;-65
2022/04/06 03:57:24;;;;;;;11.00;4.97;;;;;;;11.53;94.60;99343.47;5092733;28;20081;-65
2022/04/06 03:59:50;;;;;;;7.55;4.63;;;;;;;11.54;94.72;99342.53;5092686;28;20111;-65
2022/04/06 04:02:15;;;;;;;9.00;4.72;;;;;;;11.47;93.64;99327.78;5092793;28;20103;-66
2022/04/06 04:04:41;;;;;;;9.27;5.18;;;;;;;11.54;93.91;99331.88;5092176;28;20032;-66
2022/04/06 04:07:09;;;;;;;7.78;4.47;;;;;;;11.54;93.67;99321.22;5093127;28;20085;-66
2022/04/06 04:09:35;;;;;;;7.25;5.00;;;;;;;11.51;93.23;99329.38;5092749;28;20454;-65
2022/04/06 04:12:02;;;;;;;7.60;4.47;;;;;;;11.49;93.72;99325.91;5093013;28;20024;-66
2022/04/06 04:14:31;;;;;;;7.30;4.72;;;;;;;11.51;94.14;99324.91;5092207;28;20016;-66
2022/04/06 04:17:00;;;;;;;7.88;5.15;;;;;;;11.53;93.31;99316.84;5093009;28;20024;-66
2022/04/06 04:19:25;;;;;;;8.18;5.00;;;;;;;11.53;92.80;99322.19;5091704;28;20127;-65
2022/04/06 04:21:51;;;;;;;10.18;4.80;;;;;;;11.51;93.06;99318.72;5090305;28;20112;-65
2022/04/06 04:24:16;;;;;;;7.80;5.05;;;;;;;11.56;92.70;99316.69;5071833;28;20021;-66
2022/04/06 04:26:42;;;;;;;7.57;5.15;;;;;;;11.59;92.37;99317.41;5071947;28;20070;-66
2022/04/06 04:29:07;;;;;;;8.25;4.97;;;;;;;11.56;92.99;99312.25;5071257;28;20017;-66
2022/04/06 04:31:33;;;;;;;7.25;4.60;;;;;;;11.61;91.92;99314.69;5072021;28;20023;-65
2022/04/06 04:34:00;;;;;;;8.93;4.78;;;;;;;11.61;92.74;99314.69;5072312;28;20063;-65
2022/04/06 04:36:26;;;;;;;10.60;5.85;;;;;;;11.60;92.16;99323.59;5071860;28;20036;-65
2022/04/06 04:38:52;;;;;;;8.95;5.78;;;;;;;11.63;92.64;99315.47;5071211;28;20493;-65
2022/04/06 04:41:18;;;;;;;10.25;5.75;;;;;;;11.61;92.96;99320.00;5071924;28;20103;-65
2022/04/06 04:43:43;;;;;;;9.48;5.20;;;;;;;11.59;93.47;99313.88;5070183;28;20116;-65
2022/04/06 04:46:09;;;;;;;9.18;6.22;;;;;;;11.59;93.06;99317.41;5052265;28;20024;-66
2022/04/06 04:48:35;;;;;;;7.68;5.00;;;;;;;11.56;93.94;99317.56;5052555;28;20021;-66
2022/04/06 04:51:00;;;;;;;9.73;4.90;;;;;;;11.58;93.55;99317.50;5051307;28;20110;-66
2022/04/06 04:53:26;;;;;;;8.13;5.07;;;;;;;11.61;93.70;99314.69;5051411;28;20108;-66
2022/04/06 04:55:53;;;;;;;9.50;4.63;;;;;;;11.63;94.19;99318.13;5050846;28;20035;-65
2022/04/06 04:58:19;;;;;;;6.38;4.43;;;;;;;11.60;93.84;99315.59;5057831;28;20086;-66
2022/04/06 05:00:46;;;;;;;12.05;4.95;;;;;;;11.60;95.14;99316.47;5071840;28;20028;-66
2022/04/06 05:03:11;;;;;;;11.57;5.43;;;;;;;11.58;96.34;99314.84;5071309;28;20518;-66
2022/04/06 05:05:39;;;;;;;9.48;5.03;;;;;;;11.51;97.33;99313.38;5071909;28;20025;-66
2022/04/06 05:08:06;;;;;;;14.48;5.60;;;;;;;11.52;97.66;99315.97;5071304;28;20105;-65
2022/04/06 05:10:31;;;;;;;10.25;5.97;;;;;;;11.54;97.98;99318.56;5067718;28;20066;-66
2022/04/06 05:12:57;;;;;;;11.70;5.32;;;;;;;11.52;98.59;99315.09;5051134;28;20033;-66
2022/04/06 05:15:22;;;;;;;14.48;6.63;;;;;;;11.50;98.60;99322.28;5050658;28;20439;-66
2022/04/06 05:17:47;;;;;;;16.52;7.05;;;;;;;11.47;99.76;99318.00;5070256;28;20024;-65
2022/04/06 05:20:13;;;;;;;15.55;8.73;;;;;;;11.50;99.94;99316.97;5069171;28;20040;-65
2022/04/06 05:22:39;;;;;;;19.58;9.50;;;;;;;11.49;100.00;99309.94;5071702;28;20030;-66
2022/04/06 05:25:07;;;;;;;14.60;7.75;;;;;;;11.43;99.98;99310.22;5071119;28;20031;-65
2022/04/06 05:27:42;;;;;;;10.90;5.35;;;;;;;11.35;100.00;99307.06;5071295;28;20035;-65
2022/04/06 05:30:13;;;;;;;10.20;5.13;;;;;;;11.41;100.00;99317.41;5070746;28;20424;-65
2022/04/06 05:32:41;;;;;;;10.35;5.68;;;;;;;11.42;100.00;99324.47;5069976;28;20167;-65
2022/04/06 05:35:09;;;;;;;9.68;5.28;;;;;;;11.45;100.00;99319.84;5071053;28;20102;-65
2022/04/06 05:37:41;;;;;;;10.13;5.40;;;;;;;11.43;100.00;99318.22;5073804;28;20086;-65
2022/04/06 05:40:08;;;;;;;9.98;5.70;;;;;;;11.45;100.00;99313.69;5091343;28;20815;-65
2022/04/06 05:42:34;;;;;;;7.80;5.50;;;;;;;11.48;100.00;99316.19;5091288;28;20024;-65
2022/04/06 05:45:00;;;;;;;9.82;5.05;;;;;;;11.50;99.92;99303.66;5091335;28;20039;-65
2022/04/06 05:47:26;;;;;;;8.88;5.57;;;;;;;11.56;99.56;99316.69;5090897;28;20498;-65
2022/04/06 05:49:52;;;;;;;8.00;4.95;;;;;;;11.58;99.38;99320.16;5089319;28;20020;-65
2022/04/06 05:52:18;;;;;;;7.22;4.88;;;;;;;11.63;98.20;99312.81;5089609;28;20530;-65
2022/04/06 05:54:43;;;;;;;10.38;5.88;;;;;;;11.62;98.23;99316.41;5091013;28;20387;-65
2022/04/06 05:57:09;;;;;;;10.43;5.95;;;;;;;11.66;97.80;99318.88;5092567;28;20024;-65
2022/04/06 05:59:36;;;;;;;12.00;5.97;;;;;;;11.70;97.24;99327.56;5095301;28;20028;-65
2022/04/06 06:02:06;;;;;;;8.18;5.65;;;;;;;11.76;96.89;99327.31;5084560;28;20546;-66
2022/04/06 06:04:33;;;;;;;7.20;4.63;;;;;;;11.80;97.29;99321.75;5055398;28;20162;-66
2022/04/06 06:06:58;;;;;;;11.90;4.75;;;;;;;11.83;95.92;99323.38;5079266;28;20437;-66
2022/04/06 06:09:24;;;;;;;8.32;4.40;;;;;;;11.86;95.81;99325.91;5091770;28;20020;-66
2022/04/06 06:11:49;;;;;;;10.25;4.78;;;;;;;11.96;96.28;99324.50;5093281;28;20119;-66
2022/04/06 06:14:15;;;;;;;9.50;5.05;;;;;;;12.02;96.01;99321.56;5087658;28;20024;-66
2022/04/06 06:16:40;;;;;;;8.18;5.00;;;;;;;12.09;95.18;99323.00;5076337;28;20032;-65
2022/04/06 06:19:05;;;;;;;6.32;4.45;;;;;;;12.09;94.71;99317.66;5089119;28;20040;-65
2022/04/06 06:21:32;;;;;;;7.75;5.35;;;;;;;12.25;94.43;99317.72;5093105;28;20068;-66
2022/04/06 06:24:04;;;;;;;11.45;4.78;;;;;;;12.35;94.28;99314.53;5093099;28;20052;-66
2022/04/06 06:26:30;;;;;;;10.52;6.57;;;;;;;12.37;93.40;99317.97;5092998;28;20023;-66
2022/04/06 06:28:56;;;;;;;9.40;5.95;;;;;;;12.44;91.95;99316.72;5080208;28;20475;-66
2022/04/06 06:31:21;;;;;;;8.25;5.15;;;;;;;12.45;93.16;99318.47;5072231;28;20090;-66
2022/04/06 06:33:47;;;;;;;8.45;5.20;;;;;;;12.52;92.11;99317.19;5071806;28;20427;-66
2022/04/06 06:36:12;;;;;;;7.65;4.88;;;;;;;12.48;91.19;99315.63;5071161;28;20024;-66
2022/04/06 06:38:38;;;;;;;6.57;4.68;;;;;;;12.52;91.07;99314.50;5073499;28;20052;-66
2022/04/06 06:41:03;;;;;;;7.13;4.05;;;;;;;12.49;91.62;99312.00;5072492;28;20455;-66
2022/04/06 06:43:29;;;;;;;7.30;3.25;;;;;;;12.47;90.97;99305.06;5068773;28;20035;-66
2022/04/06 06:45:54;;;;;;;7.57;3.60;;;;;;;12.50;90.77;99318.22;5072240;28;20024;-66
2022/04/06 06:48:19;;;;;;;7.07;4.35;;;;;;;12.53;91.33;99313.59;5072127;28;20028;-65
2022/04/06 06:50:45;;;;;;;6.32;4.05;;;;;;;12.57;90.71;99315.16;5062910;28;20025;-65
2022/04/06 06:53:10;;;;;;;7.50;4.47;;;;;;;12.60;91.00;99312.31;5052635;28;20051;-66
2022/04/06 06:55:36;;;;;;;6.07;3.90;;;;;;;12.63;90.70;99309.50;5052778;28;20032;-66
2022/04/06 06:58:01;;;;;;;8.52;4.50;;;;;;;12.69;90.64;99310.97;5055346;28;20543;-66
2022/04/06 07:00:27;;;;;;;8.18;4.30;;;;;;;12.68;90.91;99311.94;5055315;28;20401;-66
2022/04/06 07:02:52;;;;;;;8.85;5.05;;;;;;;12.66;91.36;99309.34;5068383;28;20028;-66
2022/04/06 07:05:18;;;;;;;10.70;3.70;;;;;;;12.66;90.92;99304.00;5074024;28;20081;-66
2022/04/06 07:07:51;;;;;;;8.32;3.95;;;;;;;12.71;91.26;99309.97;5073946;28;20066;-66
2022/04/06 07:10:16;;;;;;;7.60;3.95;;;;;;;12.76;90.50;99302.59;5072927;28;20491;-66
2022/04/06 07:12:42;;;;;;;115.65;57.10;;;;;;;12.81;91.15;99305.88;5068704;28;20025;-66
2022/04/06 07:15:08;;;;;;;20.13;11.00;;;;;;;12.89;90.73;99301.00;5053053;28;20032;-66
2022/04/06 07:17:33;;;;;;;19.23;9.65;;;;;;;13.08;90.15;99296.41;5061627;28;20035;-66
2022/04/06 07:19:59;;;;;;;15.52;6.95;;;;;;;13.17;89.64;99301.28;5085782;28;20067;-66
2022/04/06 07:22:24;;;;;;;8.07;4.97;;;;;;;13.34;88.49;99292.34;5093834;28;20431;-66
2022/04/06 07:24:50;;;;;;;8.63;5.03;;;;;;;13.45;87.19;99292.59;5092845;28;20043;-66
2022/04/06 07:27:16;;;;;;;7.70;4.57;;;;;;;13.81;86.24;99282.50;5093025;28;20032;-66
2022/04/06 07:29:43;;;;;;;8.65;4.90;;;;;;;14.16;83.73;99267.09;5093728;28;20040;-66
2022/04/06 07:32:08;;;;;;;10.32;5.30;;;;;;;14.41;81.76;99273.56;5093923;28;20028;-66
2022/04/06 07:34:34;;;;;;;7.10;3.95;;;;;;;15.48;78.56;99268.69;5092399;28;20023;-66
2022/04/06 07:36:59;;;;;;;5.60;3.28;;;;;;;16.18;73.36;99260.41;5093458;28;20081;-66
2022/04/06 07:39:27;;;;;;;5.45;3.20;;;;;;;16.61;69.00;99259.25;5093531;28;20078;-66
2022/04/06 07:41:52;;;;;;;7.15;3.53;;;;;;;16.61;69.26;99275.34;5075212;28;20032;-66
2022/04/06 07:44:18;;;;;;;6.35;3.50;;;;;;;16.92;68.53;99268.69;5093568;28;20103;-66
2022/04/06 07:46:43;;;;;;;6.40;3.55;;;;;;;17.21;66.92;99262.16;5093162;28;20116;-66
2022/04/06 07:49:08;;;;;;;5.38;2.55;;;;;;;17.13;65.91;99263.66;5093541;28;20036;-66
2022/04/06 07:51:36;;;;;;;4.70;2.28;;;;;;;17.31;65.25;99265.91;5093352;28;20020;-66
2022/04/06 07:54:02;;;;;;;6.40;3.00;;;;;;;17.05;64.50;99270.41;5090878;28;20023;-66
2022/04/06 07:56:27;;;;;;;6.00;3.40;;;;;;;16.93;66.54;99265.06;5092621;28;20032;-66
2022/04/06 07:58:52;;;;;;;7.15;2.97;;;;;;;16.52;67.64;99267.91;5093250;28;20028;-66
2022/04/06 08:01:18;;;;;;;6.82;5.38;;;;;;;16.27;69.43;99264.31;5093081;28;20080;-66
2022/04/06 08:03:43;;;;;;;7.90;4.15;;;;;;;16.14;70.39;99261.59;5092889;28;20024;-66
2022/04/06 08:06:09;;;;;;;7.28;4.05;;;;;;;15.91;69.93;99269.44;5092508;28;20034;-66
2022/04/06 08:08:34;;;;;;;4.40;2.47;;;;;;;15.95;71.73;99260.25;5093153;28;20074;-66
2022/04/06 08:11:00;;;;;;;4.40;2.30;;;;;;;16.09;70.59;99261.03;5092238;28;20024;-66
2022/04/06 08:13:25;;;;;;;4.97;1.95;;;;;;;16.28;70.18;99260.63;5092312;28;20048;-66
2022/04/06 08:15:51;;;;;;;5.93;2.17;;;;;;;16.17;69.51;99268.56;5092599;28;20116;-66
2022/04/06 08:18:16;;;;;;;3.42;1.80;;;;;;;16.29;70.38;99273.13;5092748;28;20020;-66
2022/04/06 08:20:42;;;;;;;3.85;2.00;;;;;;;16.54;68.78;99279.41;5091580;28;20048;-66
2022/04/06 08:23:07;;;;;;;3.65;2.17;;;;;;;16.57;67.23;99267.63;5092713;28;20020;-66
2022/04/06 08:25:33;;;;;;;3.55;1.75;;;;;;;16.77;68.16;99269.78;5092118;28;20506;-66
2022/04/06 08:27:59;;;;;;;3.63;1.80;;;;;;;16.89;67.74;99271.59;5088458;28;20028;-66
2022/04/06 08:30:25;;;;;;;3.80;1.63;;;;;;;16.70;66.72;99264.00;5071795;28;20025;-66
2022/04/06 08:32:51;;;;;;;2.92;1.55;;;;;;;16.53;66.89;99260.72;5072443;28;20061;-66
2022/04/06 08:35:17;;;;;;;3.58;1.45;;;;;;;16.58;67.12;99261.28;5071139;28;20065;-67
2022/04/06 08:37:43;;;;;;;3.90;1.92;;;;;;;16.45;67.91;99263.06;5056432;28;20025;-66
2022/04/06 08:40:10;;;;;;;3.75;1.90;;;;;;;16.27;66.56;99261.63;5051047;28;20032;-66
2022/04/06 08:42:37;;;;;;;5.20;1.52;;;;;;;16.05;67.67;99264.00;5051352;28;20033;-66
2022/04/06 08:45:06;;;;;;;6.95;2.47;;;;;;;15.94;68.44;99262.06;5052002;28;20052;-66
2022/04/06 08:47:32;;;;;;;4.93;2.15;;;;;;;15.73;69.86;99263.47;5051349;28;20033;-66
2022/04/06 08:49:58;;;;;;;5.30;1.90;;;;;;;15.60;69.69;99258.03;5051864;28;20043;-66
2022/04/06 08:52:23;;;;;;;6.13;2.72;;;;;;;15.46;72.51;99271.47;5052126;28;20400;-66
2022/04/06 08:54:49;;;;;;;4.07;1.67;;;;;;;15.45;72.31;99263.53;5051319;28;20025;-66
2022/04/06 08:57:17;;;;;;;5.40;1.42;;;;;;;15.46;72.04;99266.13;5052117;28;20170;-66
2022/04/06 08:59:42;;;;;;;4.50;1.50;;;;;;;15.77;71.09;99260.47;5068989;28;20029;-66
2022/04/06 09:02:08;;;;;;;2.63;1.58;;;;;;;16.11;68.62;99260.94;5071372;28;20020;-66
2022/04/06 09:04:35;;;;;;;2.55;1.48;;;;;;;16.53;65.56;99250.00;5070952;28;20029;-66
2022/04/06 09:07:08;;;;;;;2.25;1.20;;;;;;;16.89;63.96;99256.34;5071402;28;20379;-66
2022/04/06 09:09:34;;;;;;;;;;;;;;;16.70;60.74;99252.38;5071918;28;20801;-66
2022/04/06 09:12:06;;;;;;;2.65;1.40;;;;;;;16.47;62.38;99250.41;5065011;28;19932;-66
2022/04/06 09:14:33;;;;;;;5.85;1.77;;;;;;;16.45;63.97;99255.91;5051795;28;20017;-66
2022/04/06 09:17:04;;;;;;;3.13;2.15;;;;;;;16.55;63.41;99254.31;5066022;28;20020;-66
2022/04/06 09:19:30;;;;;;;3.40;1.40;;;;;;;16.41;60.80;99251.66;5091280;28;20592;-66
2022/04/06 09:21:56;;;;;;;3.53;0.93;;;;;;;16.45;61.78;99257.69;5053886;28;20049;-66
2022/04/06 09:24:24;;;;;;;3.72;1.45;;;;;;;16.37;60.02;99254.66;5051079;28;20524;-66
2022/04/06 09:27:00;;;;;;;2.08;0.70;;;;;;;16.46;59.68;99257.59;5051393;28;20163;-66
2022/04/06 09:29:26;;;;;;;2.35;1.20;;;;;;;16.62;57.75;99244.00;5066824;28;20028;-66
2022/04/06 09:31:52;;;;;;;1.70;0.80;;;;;;;16.86;58.37;99248.53;5072123;28;20024;-66
2022/04/06 09:34:22;;;;;;;2.42;1.08;;;;;;;17.08;56.24;99242.50;5071083;28;20028;-66
2022/04/06 09:36:47;;;;;;;1.85;0.90;;;;;;;17.24;56.70;99245.78;5071364;28;20106;-66
2022/04/06 09:39:13;;;;;;;2.25;1.10;;;;;;;17.11;57.04;99236.91;5071032;28;20028;-66
2022/04/06 09:42:00;;;;;;;1.67;0.98;;;;;;;16.68;56.02;99233.69;5070640;28;20025;-66
2022/04/06 09:50:19;;;;;;;1.95;0.82;;;;;;;16.69;56.90;99240.78;5071301;28;20040;-66
2022/04/06 09:52:47;;;;;;;1.40;0.98;;;;;;;16.63;56.83;99232.28;5071189;28;20021;-66
2022/04/06 09:55:14;;;;;;;1.13;0.80;;;;;;;16.65;57.44;99216.94;5070448;28;20024;-66
2022/04/06 09:57:44;;;;;;;1.58;0.93;;;;;;;17.15;55.45;99219.56;5070896;28;20668;-66
2022/04/06 10:00:18;;;;;;;1.17;0.70;;;;;;;17.49;53.21;99205.44;5070850;28;20020;-66
2022/04/06 10:03:06;;;;;;;1.10;0.60;;;;;;;17.44;51.77;99207.56;5070995;28;20028;-66
2022/04/06 10:05:37;;;;;;;1.40;0.85;;;;;;;18.04;50.76;99210.22;5069684;28;20020;-66
2022/04/06 10:08:04;;;;;;;0.90;0.68;;;;;;;18.22;50.11;99196.25;5069818;28;20433;-66
2022/04/06 10:10:31;;;;;;;0.77;0.70;;;;;;;18.13;51.38;99207.72;5070566;28;20543;-66
2022/04/06 10:12:57;;;;;;;1.65;0.63;;;;;;;18.05;51.86;99212.84;5070954;28;20065;-66
2022/04/06 10:15:24;;;;;;;1.23;0.73;;;;;;;18.21;52.81;99199.91;5070914;28;20073;-66
2022/04/06 10:17:50;;;;;;;1.60;0.90;;;;;;;18.26;51.64;99207.63;5084719;28;20035;-66
2022/04/06 10:20:18;;;;;;;1.92;0.90;;;;;;;18.31;52.26;99200.94;5090752;28;20032;-67
2022/04/06 10:22:56;;;;;;;2.35;1.20;;;;;;;18.73;49.85;99206.69;5070442;28;20020;-67
2022/04/06 10:25:56;;;;;;;1.15;0.82;;;;;;;19.30;52.91;99194.84;5070888;28;20041;-67
2022/04/06 10:28:22;;;;;;;2.47;1.27;;;;;;;20.35;52.10;99184.22;5065464;28;20032;-67
2022/04/06 10:31:14;;;;;;;2.30;1.23;;;;;;;20.94;50.44;99178.03;5052714;28;20083;-67
2022/04/06 10:33:40;;;;;;;3.85;1.25;;;;;;;21.49;47.17;99186.66;5044162;28;20037;-67
2022/04/06 10:36:30;;;;;;;5.20;2.00;;;;;;;20.86;47.69;99183.25;5052596;28;20098;-67
2022/04/06 10:39:06;;;;;;;2.53;1.30;;;;;;;20.17;49.16;99183.06;5064112;28;20397;-67
2022/04/06 10:41:33;;;;;;;2.88;1.20;;;;;;;19.71;49.49;99175.25;5070200;28;20036;-67
2022/04/06 10:43:59;;;;;;;2.17;1.20;;;;;;;19.39;49.28;99185.13;5070585;28;20027;-67
2022/04/06 10:46:33;;;;;;;2.10;1.10;;;;;;;20.03;48.78;99176.09;5072022;28;20472;-67
2022/04/06 10:48:59;;;;;;;1.00;0.80;;;;;;;20.64;48.23;99169.06;5074239;28;20028;-67
2022/04/06 10:51:29;;;;;;;1.63;0.70;;;;;;;20.47;47.48;99170.53;5073782;28;20024;-67
2022/04/06 10:53:54;;;;;;;1.38;0.70;;;;;;;20.64;47.44;99159.09;5073951;28;20029;-67
2022/04/06 10:56:22;;;;;;;1.60;0.80;;;;;;;21.19;46.21;99147.00;5073508;28;20457;-67
2022/04/06 10:58:53;;;;;;;1.10;0.70;;;;;;;20.66;45.30;99154.41;5074075;28;20034;-67
2022/04/06 11:01:26;;;;;;;1.88;0.68;;;;;;;20.87;46.50;99151.69;5073668;28;20051;-67
2022/04/06 11:03:59;;;;;;;1.05;0.70;;;;;;;21.23;44.35;99144.88;5073695;28;20025;-67
2022/04/06 11:06:49;;;;;;;;;;;;;;;21.78;42.89;99145.16;5074150;28;20036;-67
2022/04/06 11:12:24;;;;;;;1.00;0.60;;;;;;;22.16;42.66;99133.47;5053419;28;20395;-67
2022/04/06 11:15:10;;;;;;;1.67;0.60;;;;;;;21.94;43.55;99133.78;5057231;28;20056;-67
2022/04/06 11:17:42;;;;;;;1.25;0.68;;;;;;;22.71;41.76;99121.84;5078120;28;20041;-67
2022/04/06 11:20:19;;;;;;;1.00;0.80;;;;;;;22.85;41.27;99124.06;5092317;28;20507;-67
2022/04/06 11:22:53;;;;;;;2.15;0.70;;;;;;;22.42;42.31;99128.31;5092540;28;20024;-67
2022/04/06 11:25:27;;;;;;;1.00;0.70;;;;;;;21.63;42.32;99119.47;5093855;28;20491;-67
2022/04/06 11:27:57;;;;;;;1.80;0.70;;;;;;;21.31;44.29;99109.88;5090705;28;20027;-67
2022/04/06 11:30:26;;;;;;;2.08;1.10;;;;;;;20.61;43.80;99110.72;5073005;28;20028;-67
2022/04/06 11:32:56;;;;;;;1.20;0.73;;;;;;;20.87;46.17;99106.56;5073266;28;20487;-67
2022/04/06 11:35:34;;;;;;;1.50;0.73;;;;;;;22.08;45.36;99104.41;5073112;28;20028;-67
2022/04/06 11:38:02;;;;;;;2.33;1.10;;;;;;;22.55;43.48;99102.63;5072613;28;20375;-67
2022/04/06 11:40:28;;;;;;;4.82;2.92;;;;;;;22.15;40.69;99099.25;5073198;28;20024;-67
2022/04/06 11:42:55;;;;;;;2.70;0.90;;;;;;;22.74;42.23;99097.13;5073088;28;20024;-67
2022/04/06 11:45:28;;;;;;;1.85;1.10;;;;;;;23.02;42.19;99088.03;5073027;28;20024;-67